Middleton, WI

2:57 PM CDT on September 30, 2014 (GMT -0500)
Middleton | Change Station
CLOSE
Current Station
Airport
Location: Middleton,
Elevation: 928 ft
Nearby Weather Stations

Elev 928 ft 43.12 °N, 89.53 °W | Updated 42 minutes ago

Overcast
Overcast
49 °F
Feels Like 49 °F
N
6
Wind Variable Wind from ENE

Today
High -- | Low -- °F
--% Chance of Precip.
Yesterday
High -- | Low -- °F
Precip. -- in
6:54 AM 6:41 PM
Waxing Crescent, 39% visible
Pressure 30.06 in
Visibility 10.0 miles
Clouds Overcast 1200 ft
Dew Point 42 °F
Humidity 75%
Rainfall 0.00 in
Snow Depth Not available.
UV 2 out of 12
Pollen 2.40 out of 12
PM2.5 Good
Flu Activity Not available.
METAR KC29 301915Z AUTO 06005KT 10SM OVC012 10/05 A3006 RMK AO1 T00960054

More Conditions Fewer Conditions

Pressure 30.06 in
Visibility 10.0 miles
Clouds Overcast 1200 ft
Dew Point 42 °F
Humidity 75%
Rainfall 0.00 in
Snow Depth Not available.
UV 2 out of 12
Pollen 2.40 out of 12
PM2.5 Good
Flu Activity Not available.
METAR KC29 301915Z AUTO 06005KT 10SM OVC012 10/05 A3006 RMK AO1 T00960054

More Conditions Fewer Conditions

10-Day Weather Forecast

Almanac

Astronomy

Sep. 30, 2014 Rise Set
Actual Time 6:54 AM CDT 6:41 PM CDT
Civil Twilight 6:25 AM CDT 7:09 PM CDT
Nautical Twilight 5:52 AM CDT 7:42 PM CDT
Astronomical Twilight 5:19 AM CDT 8:15 PM CDT
Moon 1:09 PM CDT 11:04 PM CDT
Length of Visible Light 12h 43m
Length of Day
11h 46m
Tomorrow will be 2m 55s shorter.
Waxing Crescent, 39% of the Moon is Illuminated
Today
Waxing Crescent
Oct 1
First Quarter
Oct 8
Full
Oct 15
Last Quarter
Oct 23
New

Today's Extremes

State Highs State Lows

Community

WunderPhotos

Upload Photos

1,757,731 photos uploaded!

Nearby

Air Quality

  Air Quality AQ Index Pollutant
Yesterday Good
PM2.5
Yesterday Good
OZONE
Current Good
PM2.5
Tuesday Good
OZONE
Tuesday Good
PM2.5
Wednesday Good
OZONE
Wednesday Good
PM2.5
Thursday Good
OZONE
Thursday Good
PM2.5
Friday Good
OZONE
Friday Good
PM2.5
Saturday Good
OZONE
Saturday Good
PM2.5
Sunday Good
OZONE
Sunday Good
PM2.5

Snow Depth

Station Depth Elevation
No new snow has been reported.

Earthquake Activity

City Distance Mag. Time & Date
No recent earthquake activity has been reported nearby.
Minimum magnitude displayed is 2.5.

Coastal Water Temperatures

Place Temperature
No Stations Reporting

Nearby Weather Stations